ADDS METAR Data INFO
IDs: Format: Raw Decoded Include TAF

Data at: 1807 UTC 18 Feb 2018

KSTJ 181753Z 19024G34KT 10SM CLR 11/M04 A2989 RMK AO2 PK WND 18039/1736 SLP127 T01111039 10111 20017 58038
KSTJ 181653Z 18024G33KT 10SM CLR 11/M04 A2993 RMK AO2 PK WND 18040/1607 SLP139 T01061044
KSTJ 181553Z 18021G28KT 10SM CLR 09/M01 A2997 RMK AO2 PK WND 18028/1553 SLP154 T00891011
KSTJ 181453Z 18017KT 10SM CLR 06/01 A3000 RMK AO2 SLP166 T00560011 56016
KSTJ 181353Z 17011KT 10SM CLR 03/01 A3002 RMK AO2 SLP173 T00330006
KSTJ 181253Z AUTO 18008KT 10SM CLR 02/M01 A3003 RMK AO2 SLP176 T00221011
KSTJ 181153Z AUTO 18009KT 10SM CLR 02/M03 A3005 RMK AO2 SLP182 T00171028 10017 21072 58021
KSTJ 181053Z AUTO 16007KT 10SM CLR M01/M06 A3007 RMK AO2 SLP187 T10061056
KSTJ 180953Z AUTO 19007KT 10SM CLR 01/M05 A3010 RMK AO2 SLP196 T00061050
KSTJ 180853Z AUTO 17007KT 10SM CLR M01/M06 A3012 RMK AO2 SLP203 T10111061 56017
KSTJ 180753Z AUTO 25004KT 10SM CLR M06/M07 A3013 RMK AO2 SLP209 T10561072
KSTJ 180653Z AUTO 00000KT 10SM CLR M07/M08 A3015 RMK AO2 SLP214 T10671083
KSTJ 180553Z AUTO 00000KT 10SM CLR M06/M08 A3017 RMK AO2 SLP224 T10561078 10061 21061 401111061 56006
KSTJ 180453Z AUTO 00000KT 10SM CLR M03/M05 A3018 RMK AO2 SLP225 T10281050
KSTJ 180353Z AUTO 00000KT 10SM CLR M02/M06 A3018 RMK AO2 SLP225 T10171056
KSTJ 180253Z AUTO 22003KT 10SM CLR M01/M05 A3019 RMK AO2 SLP229 T10111050 51020
KSTJ 180153Z AUTO 36003KT 10SM CLR M02/M07 A3018 RMK AO2 SLP226 T10171072
KSTJ 180053Z 03005KT 10SM CLR 01/M07 A3016 RMK AO2 SLP220 T00061072
KSTJ 172353Z 34006KT 10SM CLR 06/M06 A3013 RMK AO2 SLP207 T00611056 10111 20061 53012
KSTJ 172253Z 31007KT 10SM CLR 11/M05 A3011 RMK AO2 SLP201 T01061050
KSTJ 172153Z 30011KT 10SM CLR 11/M06 A3010 RMK AO2 SLP196 T01111056
KSTJ 172053Z 33013KT 10SM CLR 11/M05 A3009 RMK AO2 SLP194 T01061050 51025
KSTJ 171953Z 30016KT 10SM CLR 10/M04 A3007 RMK AO2 SLP188 T01001039
KSTJ 171853Z 30016KT 10SM CLR 09/M03 A3004 RMK AO2 SLP180 T00941033
KSTJ 171753Z 31011G20KT 10SM CLR 08/M04 A3002 RMK AO2 SLP171 T00781044 10078 20000 53013
KSTJ 171653Z 30017G23KT 10SM CLR 07/M04 A3000 RMK AO2 SLP167 T00721044
KSTJ 171553Z 24012G19KT 10SM CLR 04/M02 A2999 RMK AO2 SLP162 T00441017
KSTJ 171453Z 21012KT 10SM FEW065 OVC090 02/M02 A2998 RMK AO2 SLP161 T00171017 53009
KSTJ 171353Z 21011KT 10SM OVC055 01/M04 A2997 RMK AO2 SLP155 T00111044
KSTJ 171253Z AUTO 19008KT 10SM OVC050 01/M07 A2995 RMK AO2 SLP148 T00061072
KSTJ 171153Z AUTO 17006KT 10SM OVC070 00/M09 A2995 RMK AO2 SLP151 T00001089 10000 21050 56039
KSTJ 171053Z AUTO 17007KT 10SM OVC100 M01/M11 A2998 RMK AO2 SLP160 T10061106
KSTJ 170953Z AUTO 16006KT 10SM OVC100 M01/M12 A3004 RMK AO2 SLP178 T10061117
KSTJ 170853Z AUTO 17007KT 10SM OVC100 M01/M12 A3007 RMK AO2 SLP190 T10061117 58027
KSTJ 170753Z AUTO 18008KT 10SM OVC100 M02/M10 A3011 RMK AO2 SLP203 T10171100
KSTJ 170653Z AUTO 17006KT 10SM SCT100 M04/M11 A3013 RMK AO2 SLP211 T10441111